sensor_id;sensor_type;location;lat;lon;timestamp;P1;durP1;ratioP1;P2;durP2;ratioP2
70313;SDS011;57725;47.526;18.986;2023-03-24T00:01:54;8.15;;;5.97;;
70313;SDS011;57725;47.526;18.986;2023-03-24T00:04:20;8.43;;;6.03;;
70313;SDS011;57725;47.526;18.986;2023-03-24T00:06:48;6.88;;;5.00;;
70313;SDS011;57725;47.526;18.986;2023-03-24T00:09:13;7.03;;;5.65;;
70313;SDS011;57725;47.526;18.986;2023-03-24T00:11:40;7.15;;;5.53;;
70313;SDS011;57725;47.526;18.986;2023-03-24T00:14:08;6.93;;;5.78;;
70313;SDS011;57725;47.526;18.986;2023-03-24T00:16:38;8.48;;;5.40;;
70313;SDS011;57725;47.526;18.986;2023-03-24T00:19:07;6.65;;;5.53;;
70313;SDS011;57725;47.526;18.986;2023-03-24T00:21:35;9.00;;;5.90;;
70313;SDS011;57725;47.526;18.986;2023-03-24T00:24:01;8.18;;;5.07;;
70313;SDS011;57725;47.526;18.986;2023-03-24T00:26:29;7.30;;;5.70;;
70313;SDS011;57725;47.526;18.986;2023-03-24T00:28:57;7.68;;;4.97;;
70313;SDS011;57725;47.526;18.986;2023-03-24T00:31:26;7.75;;;5.30;;
70313;SDS011;57725;47.526;18.986;2023-03-24T00:33:54;6.47;;;5.13;;
70313;SDS011;57725;47.526;18.986;2023-03-24T00:36:21;6.80;;;5.47;;
70313;SDS011;57725;47.526;18.986;2023-03-24T00:38:50;6.43;;;5.25;;
70313;SDS011;57725;47.526;18.986;2023-03-24T00:41:18;7.32;;;5.43;;
70313;SDS011;57725;47.526;18.986;2023-03-24T00:43:47;7.57;;;5.65;;
70313;SDS011;57725;47.526;18.986;2023-03-24T00:46:16;7.50;;;5.65;;
70313;SDS011;57725;47.526;18.986;2023-03-24T00:49:01;8.82;;;6.10;;
70313;SDS011;57725;47.526;18.986;2023-03-24T00:51:40;8.07;;;5.45;;
70313;SDS011;57725;47.526;18.986;2023-03-24T00:54:08;8.07;;;5.32;;
70313;SDS011;57725;47.526;18.986;2023-03-24T00:56:36;7.95;;;6.25;;
70313;SDS011;57725;47.526;18.986;2023-03-24T00:59:06;7.00;;;5.63;;
70313;SDS011;57725;47.526;18.986;2023-03-24T01:01:33;7.03;;;5.80;;
70313;SDS011;57725;47.526;18.986;2023-03-24T01:04:00;7.35;;;5.53;;
70313;SDS011;57725;47.526;18.986;2023-03-24T01:06:29;6.97;;;5.72;;
70313;SDS011;57725;47.526;18.986;2023-03-24T01:08:54;7.63;;;5.88;;
70313;SDS011;57725;47.526;18.986;2023-03-24T01:11:20;7.32;;;5.43;;
70313;SDS011;57725;47.526;18.986;2023-03-24T01:13:49;7.00;;;5.63;;
70313;SDS011;57725;47.526;18.986;2023-03-24T01:16:15;7.55;;;5.80;;
70313;SDS011;57725;47.526;18.986;2023-03-24T01:18:45;6.75;;;5.65;;
70313;SDS011;57725;47.526;18.986;2023-03-24T01:21:13;6.55;;;5.47;;
70313;SDS011;57725;47.526;18.986;2023-03-24T01:23:39;8.02;;;6.15;;
70313;SDS011;57725;47.526;18.986;2023-03-24T01:26:06;7.68;;;5.88;;
70313;SDS011;57725;47.526;18.986;2023-03-24T01:28:33;6.20;;;5.55;;
70313;SDS011;57725;47.526;18.986;2023-03-24T01:31:04;6.68;;;5.80;;
70313;SDS011;57725;47.526;18.986;2023-03-24T01:33:34;8.60;;;5.63;;
70313;SDS011;57725;47.526;18.986;2023-03-24T01:36:00;8.20;;;6.53;;
70313;SDS011;57725;47.526;18.986;2023-03-24T01:38:28;7.75;;;5.82;;
70313;SDS011;57725;47.526;18.986;2023-03-24T01:40:54;7.20;;;6.00;;
70313;SDS011;57725;47.526;18.986;2023-03-24T01:43:23;7.07;;;5.97;;
70313;SDS011;57725;47.526;18.986;2023-03-24T01:50:58;6.88;;;6.00;;
70313;SDS011;57725;47.526;18.986;2023-03-24T01:53:26;9.48;;;6.18;;
70313;SDS011;57725;47.526;18.986;2023-03-24T01:55:54;7.95;;;6.18;;
70313;SDS011;57725;47.526;18.986;2023-03-24T01:58:20;8.35;;;5.85;;
70313;SDS011;57725;47.526;18.986;2023-03-24T02:00:48;7.38;;;6.05;;
70313;SDS011;57725;47.526;18.986;2023-03-24T02:03:17;8.48;;;6.43;;
70313;SDS011;57725;47.526;18.986;2023-03-24T02:05:48;7.75;;;5.80;;
70313;SDS011;57725;47.526;18.986;2023-03-24T02:08:18;7.70;;;6.13;;
70313;SDS011;57725;47.526;18.986;2023-03-24T02:10:57;7.32;;;6.20;;
70313;SDS011;57725;47.526;18.986;2023-03-24T02:13:26;9.43;;;6.72;;
70313;SDS011;57725;47.526;18.986;2023-03-24T02:18:49;8.10;;;6.13;;
70313;SDS011;57725;47.526;18.986;2023-03-24T02:21:45;7.78;;;5.97;;
70313;SDS011;57725;47.526;18.986;2023-03-24T02:26:51;7.72;;;5.95;;
70313;SDS011;57725;47.526;18.986;2023-03-24T02:35:07;6.40;;;5.75;;
70313;SDS011;57725;47.526;18.986;2023-03-24T02:43:45;7.65;;;6.63;;
70313;SDS011;57725;47.526;18.986;2023-03-24T02:46:35;9.65;;;6.85;;
70313;SDS011;57725;47.526;18.986;2023-03-24T02:58:05;7.95;;;6.10;;
70313;SDS011;57725;47.526;18.986;2023-03-24T03:00:42;7.30;;;5.72;;
70313;SDS011;57725;47.526;18.986;2023-03-24T03:06:08;8.02;;;6.15;;
70313;SDS011;57725;47.526;18.986;2023-03-24T03:08:48;8.38;;;6.82;;
70313;SDS011;57725;47.526;18.986;2023-03-24T03:11:22;8.13;;;6.32;;
70313;SDS011;57725;47.526;18.986;2023-03-24T03:14:01;7.20;;;5.97;;
70313;SDS011;57725;47.526;18.986;2023-03-24T03:16:40;7.70;;;6.22;;
70313;SDS011;57725;47.526;18.986;2023-03-24T03:21:59;8.35;;;6.45;;
70313;SDS011;57725;47.526;18.986;2023-03-24T03:24:32;7.88;;;6.80;;
70313;SDS011;57725;47.526;18.986;2023-03-24T03:27:05;8.48;;;6.57;;
70313;SDS011;57725;47.526;18.986;2023-03-24T03:29:39;7.78;;;6.90;;
70313;SDS011;57725;47.526;18.986;2023-03-24T03:32:10;10.80;;;7.57;;
70313;SDS011;57725;47.526;18.986;2023-03-24T03:37:22;8.57;;;7.00;;
70313;SDS011;57725;47.526;18.986;2023-03-24T03:40:37;8.43;;;7.25;;
70313;SDS011;57725;47.526;18.986;2023-03-24T03:43:12;9.93;;;6.97;;
70313;SDS011;57725;47.526;18.986;2023-03-24T03:45:40;8.82;;;6.57;;
70313;SDS011;57725;47.526;18.986;2023-03-24T03:48:09;8.35;;;6.57;;
70313;SDS011;57725;47.526;18.986;2023-03-24T03:50:35;8.25;;;7.22;;
70313;SDS011;57725;47.526;18.986;2023-03-24T03:53:03;8.05;;;7.03;;
70313;SDS011;57725;47.526;18.986;2023-03-24T03:55:34;8.38;;;6.65;;
70313;SDS011;57725;47.526;18.986;2023-03-24T03:58:03;8.05;;;6.65;;
70313;SDS011;57725;47.526;18.986;2023-03-24T04:00:30;8.80;;;6.95;;
70313;SDS011;57725;47.526;18.986;2023-03-24T04:16:40;7.68;;;6.45;;
70313;SDS011;57725;47.526;18.986;2023-03-24T04:23:27;7.88;;;6.78;;
70313;SDS011;57725;47.526;18.986;2023-03-24T04:30:30;10.57;;;7.20;;
70313;SDS011;57725;47.526;18.986;2023-03-24T04:32:58;9.60;;;7.28;;
70313;SDS011;57725;47.526;18.986;2023-03-24T04:35:43;8.57;;;7.25;;
70313;SDS011;57725;47.526;18.986;2023-03-24T04:38:19;9.93;;;7.40;;
70313;SDS011;57725;47.526;18.986;2023-03-24T04:40:50;8.75;;;7.22;;
70313;SDS011;57725;47.526;18.986;2023-03-24T04:43:19;9.43;;;6.85;;
70313;SDS011;57725;47.526;18.986;2023-03-24T04:45:50;8.45;;;7.05;;
70313;SDS011;57725;47.526;18.986;2023-03-24T04:48:22;9.00;;;6.82;;
70313;SDS011;57725;47.526;18.986;2023-03-24T04:51:00;9.52;;;8.52;;
70313;SDS011;57725;47.526;18.986;2023-03-24T04:53:27;8.60;;;7.18;;
70313;SDS011;57725;47.526;18.986;2023-03-24T04:58:31;8.63;;;6.97;;
70313;SDS011;57725;47.526;18.986;2023-03-24T05:00:59;10.18;;;7.55;;
70313;SDS011;57725;47.526;18.986;2023-03-24T05:03:27;9.18;;;7.68;;
70313;SDS011;57725;47.526;18.986;2023-03-24T05:05:55;9.45;;;7.55;;
70313;SDS011;57725;47.526;18.986;2023-03-24T05:08:21;7.90;;;6.72;;
70313;SDS011;57725;47.526;18.986;2023-03-24T05:10:47;11.27;;;7.50;;
70313;SDS011;57725;47.526;18.986;2023-03-24T05:13:12;9.98;;;7.97;;
70313;SDS011;57725;47.526;18.986;2023-03-24T05:15:41;8.55;;;7.30;;
70313;SDS011;57725;47.526;18.986;2023-03-24T05:18:07;8.18;;;7.00;;
70313;SDS011;57725;47.526;18.986;2023-03-24T05:20:32;10.35;;;7.53;;
70313;SDS011;57725;47.526;18.986;2023-03-24T05:23:00;10.25;;;7.32;;
70313;SDS011;57725;47.526;18.986;2023-03-24T05:25:28;9.18;;;7.50;;
70313;SDS011;57725;47.526;18.986;2023-03-24T05:27:53;11.15;;;7.75;;
70313;SDS011;57725;47.526;18.986;2023-03-24T05:30:21;10.20;;;7.47;;
70313;SDS011;57725;47.526;18.986;2023-03-24T05:32:49;10.23;;;7.78;;
70313;SDS011;57725;47.526;18.986;2023-03-24T05:35:23;10.25;;;8.00;;
70313;SDS011;57725;47.526;18.986;2023-03-24T05:37:51;10.05;;;7.90;;
70313;SDS011;57725;47.526;18.986;2023-03-24T05:40:16;10.95;;;8.13;;
70313;SDS011;57725;47.526;18.986;2023-03-24T05:42:44;10.02;;;7.88;;
70313;SDS011;57725;47.526;18.986;2023-03-24T05:45:13;9.63;;;7.55;;
70313;SDS011;57725;47.526;18.986;2023-03-24T05:47:38;8.25;;;6.88;;
70313;SDS011;57725;47.526;18.986;2023-03-24T05:50:04;8.57;;;7.65;;
70313;SDS011;57725;47.526;18.986;2023-03-24T05:52:33;11.65;;;8.48;;
70313;SDS011;57725;47.526;18.986;2023-03-24T05:55:02;8.88;;;7.40;;
70313;SDS011;57725;47.526;18.986;2023-03-24T05:57:28;10.95;;;7.80;;
70313;SDS011;57725;47.526;18.986;2023-03-24T05:59:56;9.68;;;8.05;;
70313;SDS011;57725;47.526;18.986;2023-03-24T06:02:22;9.43;;;8.07;;
70313;SDS011;57725;47.526;18.986;2023-03-24T06:04:49;11.50;;;8.55;;
70313;SDS011;57725;47.526;18.986;2023-03-24T06:07:17;9.43;;;7.60;;
70313;SDS011;57725;47.526;18.986;2023-03-24T06:09:50;10.60;;;7.93;;
70313;SDS011;57725;47.526;18.986;2023-03-24T06:12:16;9.90;;;7.03;;
70313;SDS011;57725;47.526;18.986;2023-03-24T06:14:42;10.73;;;8.13;;
70313;SDS011;57725;47.526;18.986;2023-03-24T06:17:09;9.68;;;8.02;;
70313;SDS011;57725;47.526;18.986;2023-03-24T06:19:39;10.30;;;7.97;;
70313;SDS011;57725;47.526;18.986;2023-03-24T06:22:12;8.82;;;7.45;;
70313;SDS011;57725;47.526;18.986;2023-03-24T06:24:41;11.05;;;8.75;;
70313;SDS011;57725;47.526;18.986;2023-03-24T06:27:06;10.20;;;8.18;;
70313;SDS011;57725;47.526;18.986;2023-03-24T06:29:33;10.15;;;8.48;;
70313;SDS011;57725;47.526;18.986;2023-03-24T06:32:01;10.27;;;8.20;;
70313;SDS011;57725;47.526;18.986;2023-03-24T06:34:26;9.13;;;7.80;;
70313;SDS011;57725;47.526;18.986;2023-03-24T06:36:53;11.57;;;8.10;;
70313;SDS011;57725;47.526;18.986;2023-03-24T06:39:19;11.15;;;8.73;;
70313;SDS011;57725;47.526;18.986;2023-03-24T06:41:45;10.85;;;8.27;;
70313;SDS011;57725;47.526;18.986;2023-03-24T06:44:12;9.23;;;7.70;;
70313;SDS011;57725;47.526;18.986;2023-03-24T06:46:38;10.05;;;8.43;;
70313;SDS011;57725;47.526;18.986;2023-03-24T06:49:04;10.48;;;7.82;;
70313;SDS011;57725;47.526;18.986;2023-03-24T06:51:30;9.63;;;7.65;;
70313;SDS011;57725;47.526;18.986;2023-03-24T06:53:57;11.20;;;8.40;;
70313;SDS011;57725;47.526;18.986;2023-03-24T06:56:25;11.48;;;8.98;;
70313;SDS011;57725;47.526;18.986;2023-03-24T06:58:51;11.48;;;9.07;;
70313;SDS011;57725;47.526;18.986;2023-03-24T07:01:19;10.35;;;8.93;;
70313;SDS011;57725;47.526;18.986;2023-03-24T07:03:44;11.98;;;8.98;;
70313;SDS011;57725;47.526;18.986;2023-03-24T07:06:12;10.82;;;9.13;;
70313;SDS011;57725;47.526;18.986;2023-03-24T07:08:38;12.00;;;9.77;;
70313;SDS011;57725;47.526;18.986;2023-03-24T07:11:04;12.27;;;10.43;;
70313;SDS011;57725;47.526;18.986;2023-03-24T07:13:34;10.90;;;9.80;;
70313;SDS011;57725;47.526;18.986;2023-03-24T07:15:59;11.95;;;9.70;;
70313;SDS011;57725;47.526;18.986;2023-03-24T07:18:25;12.18;;;10.57;;
70313;SDS011;57725;47.526;18.986;2023-03-24T07:20:50;12.43;;;10.52;;
70313;SDS011;57725;47.526;18.986;2023-03-24T07:23:18;12.65;;;11.05;;
70313;SDS011;57725;47.526;18.986;2023-03-24T07:25:52;13.07;;;10.85;;
70313;SDS011;57725;47.526;18.986;2023-03-24T07:28:18;12.35;;;10.68;;
70313;SDS011;57725;47.526;18.986;2023-03-24T07:30:46;12.18;;;10.18;;
70313;SDS011;57725;47.526;18.986;2023-03-24T07:33:11;10.73;;;9.07;;
70313;SDS011;57725;47.526;18.986;2023-03-24T07:35:37;13.00;;;10.40;;
70313;SDS011;57725;47.526;18.986;2023-03-24T07:38:06;11.00;;;9.18;;
70313;SDS011;57725;47.526;18.986;2023-03-24T07:40:36;12.57;;;9.70;;
70313;SDS011;57725;47.526;18.986;2023-03-24T07:43:03;12.02;;;10.25;;
70313;SDS011;57725;47.526;18.986;2023-03-24T07:45:31;13.05;;;10.50;;
70313;SDS011;57725;47.526;18.986;2023-03-24T07:47:59;11.77;;;10.35;;
70313;SDS011;57725;47.526;18.986;2023-03-24T07:50:31;12.80;;;10.15;;
70313;SDS011;57725;47.526;18.986;2023-03-24T07:52:57;12.50;;;10.70;;
70313;SDS011;57725;47.526;18.986;2023-03-24T07:55:22;12.25;;;10.32;;
70313;SDS011;57725;47.526;18.986;2023-03-24T07:57:55;14.05;;;10.57;;
70313;SDS011;57725;47.526;18.986;2023-03-24T08:00:20;12.75;;;11.07;;
70313;SDS011;57725;47.526;18.986;2023-03-24T08:02:50;13.32;;;11.27;;
70313;SDS011;57725;47.526;18.986;2023-03-24T08:05:17;13.70;;;10.68;;
70313;SDS011;57725;47.526;18.986;2023-03-24T08:07:47;13.85;;;11.18;;
70313;SDS011;57725;47.526;18.986;2023-03-24T08:10:18;14.20;;;11.35;;
70313;SDS011;57725;47.526;18.986;2023-03-24T08:12:45;12.98;;;11.52;;
70313;SDS011;57725;47.526;18.986;2023-03-24T08:15:12;15.93;;;11.68;;
70313;SDS011;57725;47.526;18.986;2023-03-24T08:17:45;15.07;;;11.70;;
70313;SDS011;57725;47.526;18.986;2023-03-24T08:20:12;15.35;;;11.55;;
70313;SDS011;57725;47.526;18.986;2023-03-24T08:22:40;15.43;;;12.13;;
70313;SDS011;57725;47.526;18.986;2023-03-24T08:25:10;15.52;;;12.32;;
70313;SDS011;57725;47.526;18.986;2023-03-24T08:27:38;15.98;;;12.30;;
70313;SDS011;57725;47.526;18.986;2023-03-24T08:30:05;17.15;;;12.90;;
70313;SDS011;57725;47.526;18.986;2023-03-24T08:32:32;16.40;;;13.38;;
70313;SDS011;57725;47.526;18.986;2023-03-24T08:34:59;17.05;;;13.32;;
70313;SDS011;57725;47.526;18.986;2023-03-24T08:37:24;15.00;;;12.02;;
70313;SDS011;57725;47.526;18.986;2023-03-24T08:39:49;14.68;;;12.35;;
70313;SDS011;57725;47.526;18.986;2023-03-24T08:42:22;14.93;;;12.35;;
70313;SDS011;57725;47.526;18.986;2023-03-24T08:44:48;14.80;;;12.07;;
70313;SDS011;57725;47.526;18.986;2023-03-24T08:47:16;13.93;;;11.95;;
70313;SDS011;57725;47.526;18.986;2023-03-24T08:49:44;17.25;;;13.25;;
70313;SDS011;57725;47.526;18.986;2023-03-24T08:52:09;15.32;;;12.50;;
70313;SDS011;57725;47.526;18.986;2023-03-24T08:54:37;16.55;;;12.65;;
70313;SDS011;57725;47.526;18.986;2023-03-24T08:57:05;16.25;;;12.60;;
70313;SDS011;57725;47.526;18.986;2023-03-24T08:59:32;16.23;;;11.93;;
70313;SDS011;57725;47.526;18.986;2023-03-24T09:01:58;15.82;;;12.60;;
70313;SDS011;57725;47.526;18.986;2023-03-24T09:04:23;15.77;;;13.05;;
70313;SDS011;57725;47.526;18.986;2023-03-24T09:06:51;16.35;;;12.07;;
70313;SDS011;57725;47.526;18.986;2023-03-24T09:09:17;15.43;;;12.60;;
70313;SDS011;57725;47.526;18.986;2023-03-24T09:11:42;16.00;;;12.48;;
70313;SDS011;57725;47.526;18.986;2023-03-24T09:14:08;15.00;;;13.02;;
70313;SDS011;57725;47.526;18.986;2023-03-24T09:16:33;13.65;;;11.57;;
70313;SDS011;57725;47.526;18.986;2023-03-24T09:18:59;14.35;;;12.82;;
70313;SDS011;57725;47.526;18.986;2023-03-24T09:21:24;17.35;;;12.70;;
70313;SDS011;57725;47.526;18.986;2023-03-24T09:23:49;16.67;;;12.90;;
70313;SDS011;57725;47.526;18.986;2023-03-24T09:26:15;17.15;;;13.10;;
70313;SDS011;57725;47.526;18.986;2023-03-24T09:28:42;15.48;;;12.82;;
70313;SDS011;57725;47.526;18.986;2023-03-24T09:31:08;15.23;;;13.15;;
70313;SDS011;57725;47.526;18.986;2023-03-24T09:33:34;16.77;;;12.05;;
70313;SDS011;57725;47.526;18.986;2023-03-24T09:36:00;16.80;;;12.60;;
70313;SDS011;57725;47.526;18.986;2023-03-24T09:38:27;14.10;;;11.43;;
70313;SDS011;57725;47.526;18.986;2023-03-24T09:40:54;15.05;;;11.70;;
70313;SDS011;57725;47.526;18.986;2023-03-24T09:43:39;15.25;;;11.63;;
70313;SDS011;57725;47.526;18.986;2023-03-24T09:46:25;16.77;;;12.13;;
70313;SDS011;57725;47.526;18.986;2023-03-24T09:48:57;13.43;;;11.52;;
70313;SDS011;57725;47.526;18.986;2023-03-24T09:51:23;14.80;;;12.82;;
70313;SDS011;57725;47.526;18.986;2023-03-24T09:56:30;14.40;;;11.60;;
70313;SDS011;57725;47.526;18.986;2023-03-24T09:59:09;16.60;;;12.23;;
70313;SDS011;57725;47.526;18.986;2023-03-24T10:01:40;14.10;;;11.43;;
70313;SDS011;57725;47.526;18.986;2023-03-24T10:04:10;16.58;;;11.25;;
70313;SDS011;57725;47.526;18.986;2023-03-24T10:06:42;14.23;;;10.73;;
70313;SDS011;57725;47.526;18.986;2023-03-24T10:25:41;17.50;;;11.13;;
70313;SDS011;57725;47.526;18.986;2023-03-24T10:28:18;13.60;;;10.90;;
70313;SDS011;57725;47.526;18.986;2023-03-24T10:30:48;13.05;;;10.82;;
70313;SDS011;57725;47.526;18.986;2023-03-24T10:33:15;15.18;;;11.73;;
70313;SDS011;57725;47.526;18.986;2023-03-24T10:35:47;15.15;;;11.70;;
70313;SDS011;57725;47.526;18.986;2023-03-24T10:38:22;15.63;;;11.60;;
70313;SDS011;57725;47.526;18.986;2023-03-24T10:40:48;13.52;;;10.98;;
70313;SDS011;57725;47.526;18.986;2023-03-24T10:43:16;12.75;;;10.35;;
70313;SDS011;57725;47.526;18.986;2023-03-24T10:45:44;14.52;;;11.35;;
70313;SDS011;57725;47.526;18.986;2023-03-24T10:48:13;15.68;;;10.38;;
70313;SDS011;57725;47.526;18.986;2023-03-24T10:50:57;15.10;;;12.00;;
70313;SDS011;57725;47.526;18.986;2023-03-24T10:53:26;15.65;;;10.77;;
70313;SDS011;57725;47.526;18.986;2023-03-24T10:55:51;15.70;;;10.27;;
70313;SDS011;57725;47.526;18.986;2023-03-24T10:58:26;14.70;;;10.63;;
70313;SDS011;57725;47.526;18.986;2023-03-24T11:01:24;14.88;;;10.10;;
70313;SDS011;57725;47.526;18.986;2023-03-24T11:03:56;15.85;;;10.80;;
70313;SDS011;57725;47.526;18.986;2023-03-24T11:06:24;13.85;;;9.75;;
70313;SDS011;57725;47.526;18.986;2023-03-24T11:11:47;11.40;;;9.60;;
70313;SDS011;57725;47.526;18.986;2023-03-24T11:14:32;12.25;;;9.20;;
70313;SDS011;57725;47.526;18.986;2023-03-24T11:17:02;11.07;;;8.98;;
70313;SDS011;57725;47.526;18.986;2023-03-24T11:19:53;13.98;;;9.27;;
70313;SDS011;57725;47.526;18.986;2023-03-24T11:22:20;12.82;;;9.57;;
70313;SDS011;57725;47.526;18.986;2023-03-24T11:24:46;11.63;;;8.32;;
70313;SDS011;57725;47.526;18.986;2023-03-24T11:27:16;10.88;;;8.52;;
70313;SDS011;57725;47.526;18.986;2023-03-24T11:29:42;11.50;;;8.60;;
70313;SDS011;57725;47.526;18.986;2023-03-24T11:32:21;10.27;;;8.05;;
70313;SDS011;57725;47.526;18.986;2023-03-24T11:35:06;12.18;;;8.30;;
70313;SDS011;57725;47.526;18.986;2023-03-24T11:37:41;11.18;;;8.55;;
70313;SDS011;57725;47.526;18.986;2023-03-24T11:45:34;11.10;;;6.47;;
70313;SDS011;57725;47.526;18.986;2023-03-24T11:50:51;10.15;;;7.40;;
70313;SDS011;57725;47.526;18.986;2023-03-24T11:53:22;10.30;;;7.05;;
70313;SDS011;57725;47.526;18.986;2023-03-24T11:56:01;12.80;;;8.27;;
70313;SDS011;57725;47.526;18.986;2023-03-24T11:58:36;10.25;;;7.07;;
70313;SDS011;57725;47.526;18.986;2023-03-24T12:01:20;10.98;;;7.30;;
70313;SDS011;57725;47.526;18.986;2023-03-24T12:14:19;11.07;;;6.30;;
70313;SDS011;57725;47.526;18.986;2023-03-24T12:25:20;9.43;;;5.90;;
70313;SDS011;57725;47.526;18.986;2023-03-24T12:27:59;8.68;;;4.90;;
70313;SDS011;57725;47.526;18.986;2023-03-24T12:53:11;7.35;;;4.10;;
70313;SDS011;57725;47.526;18.986;2023-03-24T12:55:47;8.50;;;4.32;;
70313;SDS011;57725;47.526;18.986;2023-03-24T13:06:17;7.72;;;4.90;;
70313;SDS011;57725;47.526;18.986;2023-03-24T13:09:10;9.90;;;4.57;;
70313;SDS011;57725;47.526;18.986;2023-03-24T13:11:45;10.60;;;4.15;;
70313;SDS011;57725;47.526;18.986;2023-03-24T13:14:13;8.75;;;4.18;;
70313;SDS011;57725;47.526;18.986;2023-03-24T13:16:42;7.75;;;4.10;;
70313;SDS011;57725;47.526;18.986;2023-03-24T13:19:19;6.03;;;3.63;;
70313;SDS011;57725;47.526;18.986;2023-03-24T13:21:53;5.43;;;3.67;;
70313;SDS011;57725;47.526;18.986;2023-03-24T13:24:20;5.68;;;3.63;;
70313;SDS011;57725;47.526;18.986;2023-03-24T13:35:03;6.70;;;3.67;;
70313;SDS011;57725;47.526;18.986;2023-03-24T13:37:50;5.57;;;3.90;;
70313;SDS011;57725;47.526;18.986;2023-03-24T13:40:36;5.18;;;3.70;;
70313;SDS011;57725;47.526;18.986;2023-03-24T13:43:10;7.75;;;3.35;;
70313;SDS011;57725;47.526;18.986;2023-03-24T13:45:44;6.05;;;3.22;;
70313;SDS011;57725;47.526;18.986;2023-03-24T13:48:19;4.22;;;2.97;;
70313;SDS011;57725;47.526;18.986;2023-03-24T13:56:11;5.20;;;3.38;;
70313;SDS011;57725;47.526;18.986;2023-03-24T14:06:43;5.40;;;2.88;;
70313;SDS011;57725;47.526;18.986;2023-03-24T14:09:21;6.32;;;3.10;;
70313;SDS011;57725;47.526;18.986;2023-03-24T14:14:32;7.45;;;2.95;;
70313;SDS011;57725;47.526;18.986;2023-03-24T14:22:07;9.95;;;3.10;;
70313;SDS011;57725;47.526;18.986;2023-03-24T14:24:37;18.35;;;4.95;;
70313;SDS011;57725;47.526;18.986;2023-03-24T14:27:21;15.25;;;4.13;;
70313;SDS011;57725;47.526;18.986;2023-03-24T14:30:10;18.23;;;3.88;;
70313;SDS011;57725;47.526;18.986;2023-03-24T14:32:42;13.20;;;3.50;;
70313;SDS011;57725;47.526;18.986;2023-03-24T14:37:54;16.17;;;3.80;;
70313;SDS011;57725;47.526;18.986;2023-03-24T14:40:33;13.30;;;3.30;;
70313;SDS011;57725;47.526;18.986;2023-03-24T14:46:00;10.48;;;3.60;;
70313;SDS011;57725;47.526;18.986;2023-03-24T14:48:32;11.30;;;3.38;;
70313;SDS011;57725;47.526;18.986;2023-03-24T14:53:55;8.25;;;3.38;;
70313;SDS011;57725;47.526;18.986;2023-03-24T14:56:21;12.73;;;3.85;;
70313;SDS011;57725;47.526;18.986;2023-03-24T14:58:49;20.95;;;4.35;;
70313;SDS011;57725;47.526;18.986;2023-03-24T15:01:20;27.77;;;4.75;;
70313;SDS011;57725;47.526;18.986;2023-03-24T15:06:22;18.65;;;4.55;;
70313;SDS011;57725;47.526;18.986;2023-03-24T15:08:59;22.70;;;4.70;;
70313;SDS011;57725;47.526;18.986;2023-03-24T15:11:34;13.68;;;3.03;;
70313;SDS011;57725;47.526;18.986;2023-03-24T15:14:18;22.20;;;3.83;;
70313;SDS011;57725;47.526;18.986;2023-03-24T15:17:05;17.10;;;3.80;;
70313;SDS011;57725;47.526;18.986;2023-03-24T15:19:42;12.45;;;3.13;;
70313;SDS011;57725;47.526;18.986;2023-03-24T15:22:10;15.65;;;3.72;;
70313;SDS011;57725;47.526;18.986;2023-03-24T15:24:39;19.00;;;4.40;;
70313;SDS011;57725;47.526;18.986;2023-03-24T15:29:31;12.65;;;3.60;;
70313;SDS011;57725;47.526;18.986;2023-03-24T15:32:00;9.80;;;3.35;;
70313;SDS011;57725;47.526;18.986;2023-03-24T15:36:58;16.40;;;3.30;;
70313;SDS011;57725;47.526;18.986;2023-03-24T15:39:37;15.10;;;3.95;;
70313;SDS011;57725;47.526;18.986;2023-03-24T15:42:07;12.95;;;3.40;;
70313;SDS011;57725;47.526;18.986;2023-03-24T15:44:41;9.10;;;2.63;;
70313;SDS011;57725;47.526;18.986;2023-03-24T15:47:27;10.43;;;2.97;;
70313;SDS011;57725;47.526;18.986;2023-03-24T15:50:00;10.40;;;3.65;;
70313;SDS011;57725;47.526;18.986;2023-03-24T15:57:41;8.02;;;3.25;;
70313;SDS011;57725;47.526;18.986;2023-03-24T16:00:13;8.88;;;3.03;;
70313;SDS011;57725;47.526;18.986;2023-03-24T16:02:53;11.73;;;3.63;;
70313;SDS011;57725;47.526;18.986;2023-03-24T16:12:57;7.00;;;2.97;;
70313;SDS011;57725;47.526;18.986;2023-03-24T16:15:28;12.35;;;3.05;;
70313;SDS011;57725;47.526;18.986;2023-03-24T16:17:58;9.82;;;3.33;;
70313;SDS011;57725;47.526;18.986;2023-03-24T16:20:26;10.98;;;3.17;;
70313;SDS011;57725;47.526;18.986;2023-03-24T16:22:51;4.82;;;2.78;;
70313;SDS011;57725;47.526;18.986;2023-03-24T16:25:17;4.35;;;2.50;;
70313;SDS011;57725;47.526;18.986;2023-03-24T16:27:45;10.93;;;3.03;;
70313;SDS011;57725;47.526;18.986;2023-03-24T16:30:18;6.95;;;3.22;;
70313;SDS011;57725;47.526;18.986;2023-03-24T16:32:49;7.65;;;2.95;;
70313;SDS011;57725;47.526;18.986;2023-03-24T16:35:15;4.57;;;2.33;;
70313;SDS011;57725;47.526;18.986;2023-03-24T16:37:40;6.05;;;2.58;;
70313;SDS011;57725;47.526;18.986;2023-03-24T16:40:18;10.98;;;3.13;;
70313;SDS011;57725;47.526;18.986;2023-03-24T16:42:46;4.47;;;3.20;;
70313;SDS011;57725;47.526;18.986;2023-03-24T16:45:11;7.50;;;2.83;;
70313;SDS011;57725;47.526;18.986;2023-03-24T16:47:37;7.32;;;2.75;;
70313;SDS011;57725;47.526;18.986;2023-03-24T16:50:14;6.82;;;2.50;;
70313;SDS011;57725;47.526;18.986;2023-03-24T16:52:51;8.27;;;2.55;;
70313;SDS011;57725;47.526;18.986;2023-03-24T16:55:19;6.15;;;2.95;;
70313;SDS011;57725;47.526;18.986;2023-03-24T16:57:47;3.83;;;2.42;;
70313;SDS011;57725;47.526;18.986;2023-03-24T17:00:14;5.20;;;2.70;;
70313;SDS011;57725;47.526;18.986;2023-03-24T17:02:43;4.70;;;2.90;;
70313;SDS011;57725;47.526;18.986;2023-03-24T17:05:25;8.45;;;3.30;;
70313;SDS011;57725;47.526;18.986;2023-03-24T17:07:53;4.47;;;2.63;;
70313;SDS011;57725;47.526;18.986;2023-03-24T17:10:25;5.15;;;2.50;;
70313;SDS011;57725;47.526;18.986;2023-03-24T17:12:54;6.60;;;2.30;;
70313;SDS011;57725;47.526;18.986;2023-03-24T17:15:26;7.30;;;2.83;;
70313;SDS011;57725;47.526;18.986;2023-03-24T17:17:53;4.88;;;2.47;;
70313;SDS011;57725;47.526;18.986;2023-03-24T17:20:20;4.97;;;2.80;;
70313;SDS011;57725;47.526;18.986;2023-03-24T17:22:49;5.53;;;3.03;;
70313;SDS011;57725;47.526;18.986;2023-03-24T17:25:17;5.43;;;2.60;;
70313;SDS011;57725;47.526;18.986;2023-03-24T17:27:46;4.25;;;3.05;;
70313;SDS011;57725;47.526;18.986;2023-03-24T17:30:20;4.57;;;2.95;;
70313;SDS011;57725;47.526;18.986;2023-03-24T17:32:51;5.35;;;2.17;;
70313;SDS011;57725;47.526;18.986;2023-03-24T17:35:19;5.68;;;3.03;;
70313;SDS011;57725;47.526;18.986;2023-03-24T17:37:48;7.75;;;3.13;;
70313;SDS011;57725;47.526;18.986;2023-03-24T17:40:15;4.57;;;2.72;;
70313;SDS011;57725;47.526;18.986;2023-03-24T17:42:45;6.05;;;3.25;;
70313;SDS011;57725;47.526;18.986;2023-03-24T17:45:15;4.72;;;2.40;;
70313;SDS011;57725;47.526;18.986;2023-03-24T17:47:44;3.63;;;2.78;;
70313;SDS011;57725;47.526;18.986;2023-03-24T17:50:10;4.07;;;2.65;;
70313;SDS011;57725;47.526;18.986;2023-03-24T17:52:46;4.43;;;2.58;;
70313;SDS011;57725;47.526;18.986;2023-03-24T17:55:13;6.28;;;2.78;;
70313;SDS011;57725;47.526;18.986;2023-03-24T17:57:40;3.95;;;2.33;;
70313;SDS011;57725;47.526;18.986;2023-03-24T18:00:08;3.63;;;2.40;;
70313;SDS011;57725;47.526;18.986;2023-03-24T18:02:36;5.65;;;2.72;;
70313;SDS011;57725;47.526;18.986;2023-03-24T18:05:05;5.72;;;3.05;;
70313;SDS011;57725;47.526;18.986;2023-03-24T18:07:35;5.55;;;2.67;;